Time;durP1;ratioP1;P1;durP2;ratioP2;P2;SDS_P1;SDS_P2;PMS_P1;PMS_P2;Temp;Humidity;BMP_temperature;BMP_pressure;BME280_temperature;BME280_humidity;BME280_pressure;Samples;Min_cycle;Max_cycle;Signal;HPM_P1;HPM_P2
2023/12/01 00:00:37;;;;;;;4.05;3.47;;;16.60;45.30;;;;;;5108606;27;45299;-72
2023/12/01 00:03:04;;;;;;;4.97;3.35;;;16.60;45.30;;;;;;5108952;27;45454;-72
2023/12/01 00:05:31;;;;;;;3.78;3.17;;;16.60;45.40;;;;;;5108408;27;48798;-72
2023/12/01 00:07:57;;;;;;;4.13;3.63;;;16.50;45.40;;;;;;5107267;27;45329;-72
2023/12/01 00:10:25;;;;;;;3.80;3.30;;;16.50;45.40;;;;;;5108541;27;45364;-72
2023/12/01 00:12:51;;;;;;;4.45;3.15;;;16.50;45.50;;;;;;5108100;27;45235;-72
2023/12/01 00:15:18;;;;;;;4.70;2.97;;;16.40;45.50;;;;;;5108390;27;46670;-72
2023/12/01 00:17:46;;;;;;;6.35;3.58;;;16.40;45.50;;;;;;5108431;27;45434;-72
2023/12/01 00:20:13;;;;;;;3.55;3.25;;;16.40;46.20;;;;;;5108345;27;45326;-71
2023/12/01 00:22:40;;;;;;;3.95;3.08;;;16.40;45.60;;;;;;5108685;27;45179;-72
2023/12/01 00:25:08;;;;;;;3.25;2.95;;;16.30;45.60;;;;;;5108068;27;45287;-72
2023/12/01 00:27:35;;;;;;;6.15;3.25;;;16.30;45.60;;;;;;5108154;27;45366;-71
2023/12/01 00:30:02;;;;;;;4.53;3.15;;;16.30;45.70;;;;;;5108370;27;45339;-71
2023/12/01 00:32:28;;;;;;;3.42;3.00;;;16.20;45.60;;;;;;5108295;27;45354;-72
2023/12/01 00:34:57;;;;;;;3.50;3.13;;;16.20;45.70;;;;;;5108100;27;46484;-72
2023/12/01 00:37:23;;;;;;;3.13;2.80;;;16.20;45.70;;;;;;5108080;27;45459;-72
2023/12/01 00:39:50;;;;;;;3.88;3.00;;;16.20;45.80;;;;;;5108116;27;45327;-72
2023/12/01 00:42:17;;;;;;;3.33;2.85;;;16.20;45.80;;;;;;5108124;27;45425;-72
2023/12/01 00:44:45;;;;;;;3.42;2.95;;;16.10;45.80;;;;;;5107732;27;46427;-72
2023/12/01 00:47:11;;;;;;;3.03;2.60;;;16.10;45.90;;;;;;5107795;27;45215;-71
2023/12/01 00:49:38;;;;;;;2.85;2.60;;;16.10;45.90;;;;;;5107931;27;45278;-72
2023/12/01 00:52:07;;;;;;;4.22;3.28;;;16.00;45.90;;;;;;5108131;27;45369;-72
2023/12/01 00:54:34;;;;;;;4.47;3.20;;;16.00;46.00;;;;;;5107609;27;46460;-72
2023/12/01 00:57:00;;;;;;;3.13;2.80;;;16.00;46.00;;;;;;5107019;27;45253;-73
2023/12/01 00:59:27;;;;;;;3.67;3.17;;;15.90;46.10;;;;;;5107763;27;45324;-72
2023/12/01 01:01:54;;;;;;;4.78;3.13;;;15.90;46.00;;;;;;5108033;27;45351;-72
2023/12/01 01:04:21;;;;;;;3.30;3.00;;;15.90;46.20;;;;;;5107616;27;46317;-72
2023/12/01 01:06:48;;;;;;;3.35;3.05;;;15.90;46.20;;;;;;5107548;27;45346;-70
2023/12/01 01:09:16;;;;;;;3.28;2.97;;;15.80;46.30;;;;;;5107443;27;45136;-72
2023/12/01 01:11:43;;;;;;;3.28;2.97;;;15.80;46.30;;;;;;5107974;27;45497;-72
2023/12/01 01:14:10;;;;;;;3.33;2.90;;;15.70;46.40;;;;;;5107510;27;46410;-71
2023/12/01 01:16:37;;;;;;;3.33;2.63;;;15.70;46.50;;;;;;5107460;27;45481;-72
2023/12/01 01:19:03;;;;;;;4.30;2.53;;;15.70;46.50;;;;;;5107117;27;45241;-72
2023/12/01 01:21:30;;;;;;;3.28;2.92;;;15.70;46.50;;;;;;5107650;27;45564;-72
2023/12/01 01:23:57;;;;;;;2.40;2.20;;;15.70;46.50;;;;;;5107336;27;45256;-72
2023/12/01 01:26:25;;;;;;;2.83;2.63;;;15.60;46.50;;;;;;5107295;27;45311;-72
2023/12/01 01:28:52;;;;;;;2.63;2.42;;;15.60;46.40;;;;;;5107331;27;45338;-72
2023/12/01 01:31:19;;;;;;;2.90;2.70;;;15.60;46.50;;;;;;5107474;27;45252;-72
2023/12/01 01:33:46;;;;;;;3.67;2.80;;;15.60;46.50;;;;;;5107187;27;46265;-72
2023/12/01 01:36:13;;;;;;;3.00;2.70;;;15.60;46.50;;;;;;5107185;27;45327;-72
2023/12/01 01:38:40;;;;;;;3.03;2.72;;;15.60;46.50;;;;;;5106534;27;45308;-72
2023/12/01 01:41:07;;;;;;;2.80;2.53;;;15.60;46.60;;;;;;5107106;27;45339;-72
2023/12/01 01:43:36;;;;;;;3.00;2.75;;;15.60;46.70;;;;;;5107086;27;47342;-72
2023/12/01 01:46:03;;;;;;;3.03;2.65;;;15.50;46.60;;;;;;5107110;27;45490;-72
2023/12/01 01:48:30;;;;;;;2.70;2.50;;;15.50;46.60;;;;;;5106988;27;45365;-72
2023/12/01 01:50:57;;;;;;;2.45;2.25;;;15.50;46.70;;;;;;5107288;27;45402;-72
2023/12/01 01:53:24;;;;;;;2.67;2.42;;;15.50;46.70;;;;;;5106850;27;46263;-72
2023/12/01 01:55:51;;;;;;;2.50;2.30;;;15.50;46.70;;;;;;5106844;27;45119;-72
2023/12/01 01:58:18;;;;;;;2.70;2.42;;;15.50;46.70;;;;;;5107186;27;45302;-72
2023/12/01 02:00:49;;;;;;;2.63;2.42;;;15.50;46.70;;;;;;5107129;27;45441;-72
2023/12/01 02:03:16;;;;;;;3.30;2.90;;;15.40;46.60;;;;;;5107039;27;47558;-71
2023/12/01 02:05:47;;;;;;;2.65;2.45;;;15.40;46.60;;;;;;5106958;27;45509;-72
2023/12/01 02:08:24;;;;;;;2.60;2.40;;;15.40;46.70;;;;;;5106951;27;45403;-72
2023/12/01 02:10:52;;;;;;;3.28;2.75;;;15.40;46.80;;;;;;5106784;27;45331;-72
2023/12/01 02:13:19;;;;;;;2.50;2.30;;;15.30;46.80;;;;;;5107187;27;45416;-71
2023/12/01 02:15:47;;;;;;;2.45;2.25;;;15.30;46.80;;;;;;5106565;27;45373;-72
2023/12/01 02:18:21;;;;;;;3.08;2.20;;;15.30;46.80;;;;;;5106874;27;45261;-71
2023/12/01 02:20:48;;;;;;;2.80;2.60;;;15.30;46.90;;;;;;5107161;27;45356;-72
2023/12/01 02:23:17;;;;;;;2.83;2.58;;;15.30;46.80;;;;;;5106675;27;46352;-71
2023/12/01 02:25:43;;;;;;;2.55;2.40;;;15.30;47.00;;;;;;5106480;27;45369;-71
2023/12/01 02:28:10;;;;;;;2.80;2.60;;;15.30;47.60;;;;;;5106586;27;45309;-72
2023/12/01 02:30:37;;;;;;;2.53;2.33;;;15.20;47.00;;;;;;5106712;27;45362;-71
2023/12/01 02:33:04;;;;;;;4.95;2.65;;;15.20;47.00;;;;;;5109963;27;46372;-72
2023/12/01 02:35:31;;;;;;;2.30;2.13;;;15.20;47.00;;;;;;5110279;27;45283;-72
2023/12/01 02:37:57;;;;;;;2.72;2.53;;;15.10;47.00;;;;;;5110262;27;45167;-72
2023/12/01 02:40:27;;;;;;;2.92;2.63;;;15.10;47.00;;;;;;5110393;27;45432;-72
2023/12/01 02:42:54;;;;;;;3.40;2.40;;;15.10;47.00;;;;;;5109792;27;45621;-72
2023/12/01 02:45:21;;;;;;;2.83;2.63;;;15.10;47.10;;;;;;5109984;27;45235;-72
2023/12/01 02:47:49;;;;;;;4.72;2.80;;;15.10;47.10;;;;;;5110044;27;45273;-72
2023/12/01 02:50:16;;;;;;;2.80;2.60;;;15.10;47.00;;;;;;5110169;27;45359;-72
2023/12/01 02:52:43;;;;;;;2.88;2.67;;;15.10;47.10;;;;;;5109923;27;45356;-71
2023/12/01 02:55:10;;;;;;;2.53;2.33;;;15.00;47.00;;;;;;5109737;27;45273;-72
2023/12/01 02:57:39;;;;;;;2.60;2.40;;;15.00;47.10;;;;;;5109609;27;45204;-72
2023/12/01 03:00:10;;;;;;;2.53;2.33;;;15.00;47.10;;;;;;5110004;27;45350;-72
2023/12/01 03:02:37;;;;;;;3.90;2.60;;;15.00;47.10;;;;;;5109479;27;45596;-72
2023/12/01 03:05:05;;;;;;;2.80;2.60;;;15.00;47.00;;;;;;5109676;27;45340;-71
2023/12/01 03:07:32;;;;;;;2.63;2.42;;;15.00;47.10;;;;;;5109783;27;45222;-71
2023/12/01 03:09:59;;;;;;;3.15;2.85;;;14.90;47.00;;;;;;5109562;27;45240;-72
2023/12/01 03:12:26;;;;;;;2.70;2.50;;;14.90;47.10;;;;;;5109351;27;45294;-72
2023/12/01 03:14:54;;;;;;;7.45;2.60;;;14.90;47.20;;;;;;5109562;27;45188;-71
2023/12/01 03:17:23;;;;;;;2.50;2.17;;;14.90;47.10;;;;;;5109704;27;45321;-71
2023/12/01 03:19:50;;;;;;;2.50;2.30;;;14.90;47.20;;;;;;5108900;27;45191;-72
2023/12/01 03:22:17;;;;;;;2.45;2.25;;;14.90;47.10;;;;;;5109509;27;45549;-72
2023/12/01 03:24:44;;;;;;;3.15;2.70;;;14.90;47.20;;;;;;5109241;27;45364;-72
2023/12/01 03:27:11;;;;;;;2.42;2.22;;;14.90;47.10;;;;;;5109632;27;45464;-72
2023/12/01 03:29:39;;;;;;;2.33;2.13;;;14.90;47.20;;;;;;5109273;27;45374;-72
2023/12/01 03:32:07;;;;;;;3.13;2.60;;;14.90;47.20;;;;;;5108992;27;46380;-72
2023/12/01 03:34:34;;;;;;;2.97;2.78;;;14.80;47.10;;;;;;5109183;27;45328;-72
2023/12/01 03:37:01;;;;;;;2.63;2.42;;;14.80;47.20;;;;;;5109260;27;45508;-72
2023/12/01 03:39:28;;;;;;;2.80;2.60;;;14.80;47.20;;;;;;5109297;27;45351;-72
2023/12/01 03:41:54;;;;;;;2.30;2.10;;;14.80;47.30;;;;;;5108892;27;46432;-72
2023/12/01 03:44:21;;;;;;;2.47;2.28;;;14.70;47.30;;;;;;5109070;27;45276;-72
2023/12/01 03:46:48;;;;;;;2.65;2.45;;;14.70;47.30;;;;;;5108882;27;45330;-72
2023/12/01 03:49:16;;;;;;;2.70;2.50;;;14.70;47.30;;;;;;5108999;27;45439;-72
2023/12/01 03:51:43;;;;;;;2.75;2.20;;;14.70;47.30;;;;;;5108812;27;46688;-72
2023/12/01 03:54:10;;;;;;;2.50;2.33;;;14.70;47.30;;;;;;5108850;27;45295;-71
2023/12/01 03:56:37;;;;;;;2.70;2.50;;;14.70;47.40;;;;;;5108946;27;45357;-72
2023/12/01 03:59:09;;;;;;;2.35;2.15;;;14.70;47.30;;;;;;5108688;27;45446;-72
2023/12/01 04:01:37;;;;;;;2.53;2.20;;;14.70;47.30;;;;;;5108541;27;46480;-72
2023/12/01 04:04:04;;;;;;;2.65;2.45;;;14.70;47.30;;;;;;5108172;27;45505;-71
2023/12/01 04:06:33;;;;;;;2.60;2.40;;;14.60;47.20;;;;;;5108428;27;45366;-72
2023/12/01 04:09:05;;;;;;;2.60;2.40;;;14.60;47.20;;;;;;5108596;27;45243;-72
2023/12/01 04:11:32;;;;;;;2.90;2.70;;;14.60;47.30;;;;;;5108417;27;47041;-72
2023/12/01 04:13:59;;;;;;;3.38;2.40;;;14.60;47.30;;;;;;5108524;27;45245;-72
2023/12/01 04:16:26;;;;;;;2.75;2.40;;;14.60;47.30;;;;;;5108697;27;45310;-72
2023/12/01 04:18:53;;;;;;;3.50;2.60;;;14.60;47.40;;;;;;5108753;27;45211;-72
2023/12/01 04:21:20;;;;;;;2.38;2.17;;;14.50;48.00;;;;;;5108307;27;46697;-72
2023/12/01 04:23:48;;;;;;;2.47;2.28;;;14.50;47.30;;;;;;5108299;27;45487;-72
2023/12/01 04:26:15;;;;;;;2.38;2.17;;;14.50;47.40;;;;;;5108557;27;45392;-72
2023/12/01 04:28:41;;;;;;;2.55;2.35;;;14.50;47.30;;;;;;5108407;27;45228;-72
2023/12/01 04:31:08;;;;;;;2.47;2.28;;;14.50;47.40;;;;;;5107930;27;45326;-72
2023/12/01 04:33:35;;;;;;;2.25;2.15;;;14.50;47.40;;;;;;5108167;27;45273;-72
2023/12/01 04:36:06;;;;;;;2.60;2.20;;;14.40;47.30;;;;;;5108446;27;45377;-72
2023/12/01 04:38:34;;;;;;;3.25;2.20;;;14.40;47.30;;;;;;5108490;27;45395;-72
2023/12/01 04:41:03;;;;;;;2.40;2.20;;;14.40;47.40;;;;;;5107866;27;46665;-72
2023/12/01 04:43:30;;;;;;;3.05;2.42;;;14.40;47.50;;;;;;5108044;27;45387;-72
2023/12/01 04:45:57;;;;;;;2.33;2.13;;;14.30;47.50;;;;;;5108064;27;45305;-72
2023/12/01 04:48:24;;;;;;;2.55;2.35;;;14.30;47.60;;;;;;5108192;27;45290;-71
2023/12/01 04:50:51;;;;;;;2.40;2.20;;;14.30;47.50;;;;;;5106997;27;46437;-71
2023/12/01 04:53:18;;;;;;;2.50;2.30;;;14.30;47.50;;;;;;5106855;27;45335;-72
2023/12/01 04:55:46;;;;;;;2.25;2.10;;;14.30;47.50;;;;;;5107887;27;45318;-72
2023/12/01 04:58:14;;;;;;;2.50;2.30;;;14.30;47.50;;;;;;5107634;27;45575;-72
2023/12/01 05:00:41;;;;;;;2.90;2.33;;;14.30;47.50;;;;;;5107378;27;46410;-72
2023/12/01 05:03:08;;;;;;;2.20;2.00;;;14.20;47.40;;;;;;5108074;27;45370;-72
2023/12/01 05:05:36;;;;;;;2.38;2.17;;;14.20;47.40;;;;;;5107813;27;45264;-72
2023/12/01 05:08:04;;;;;;;2.13;1.98;;;14.20;47.50;;;;;;5107834;27;45473;-72
2023/12/01 05:10:32;;;;;;;2.40;2.20;;;14.20;47.40;;;;;;5107324;27;45368;-72
2023/12/01 05:12:59;;;;;;;2.60;2.40;;;14.20;47.50;;;;;;5107684;27;45321;-72
2023/12/01 05:15:28;;;;;;;2.10;1.98;;;14.20;47.60;;;;;;5107678;27;45259;-72
2023/12/01 05:17:56;;;;;;;2.08;1.98;;;14.20;47.50;;;;;;5107748;27;45370;-72
2023/12/01 05:20:25;;;;;;;2.13;2.00;;;14.20;47.50;;;;;;5107208;27;45380;-72
2023/12/01 05:22:52;;;;;;;2.40;2.10;;;14.10;47.50;;;;;;5107484;27;45309;-72
2023/12/01 05:25:20;;;;;;;2.60;2.40;;;14.10;47.60;;;;;;5107597;27;45188;-72
2023/12/01 05:27:48;;;;;;;2.40;2.17;;;14.10;47.50;;;;;;5107680;27;45510;-72
2023/12/01 05:30:16;;;;;;;2.40;2.20;;;14.10;47.50;;;;;;5107181;27;45352;-72
2023/12/01 05:32:45;;;;;;;2.33;2.13;;;14.10;47.60;;;;;;5107092;27;45446;-72
2023/12/01 05:35:12;;;;;;;2.20;2.10;;;14.10;47.50;;;;;;5107494;27;45528;-71
2023/12/01 05:37:40;;;;;;;2.38;2.20;;;14.00;47.50;;;;;;5107081;27;45565;-72
2023/12/01 05:40:09;;;;;;;2.40;2.20;;;14.00;47.50;;;;;;5106234;27;46696;-72
2023/12/01 05:42:36;;;;;;;2.15;2.00;;;14.00;47.50;;;;;;5107225;27;45431;-72
2023/12/01 05:45:03;;;;;;;2.00;1.90;;;14.00;47.50;;;;;;5107367;27;45278;-72
2023/12/01 05:47:29;;;;;;;2.35;2.17;;;14.00;47.50;;;;;;5107368;27;45386;-72
2023/12/01 05:49:57;;;;;;;4.22;2.10;;;14.00;47.50;;;;;;5106973;27;45540;-72
2023/12/01 05:52:24;;;;;;;2.42;2.22;;;14.00;47.60;;;;;;5107229;27;45248;-72
2023/12/01 05:54:52;;;;;;;2.40;2.20;;;14.00;47.60;;;;;;5107173;27;45377;-72
2023/12/01 05:57:20;;;;;;;2.00;1.90;;;14.00;47.60;;;;;;5107111;27;45389;-72
2023/12/01 05:59:48;;;;;;;2.10;2.00;;;14.00;47.60;;;;;;5106703;27;45261;-72
2023/12/01 06:02:15;;;;;;;2.15;2.03;;;13.90;47.50;;;;;;5106925;27;45417;-71
2023/12/01 06:04:42;;;;;;;2.33;2.13;;;13.90;47.60;;;;;;5107051;27;45363;-72
2023/12/01 06:07:10;;;;;;;2.58;2.38;;;13.90;47.60;;;;;;5110117;27;45507;-72
2023/12/01 06:09:37;;;;;;;2.47;2.28;;;13.90;47.70;;;;;;5110113;27;46596;-72
2023/12/01 06:12:05;;;;;;;2.10;2.00;;;13.90;47.70;;;;;;5110505;27;45361;-72
2023/12/01 06:14:31;;;;;;;2.50;2.30;;;14.00;48.20;;;;;;5110567;27;45427;-72
2023/12/01 06:16:58;;;;;;;2.17;1.98;;;14.00;47.40;;;;;;5110639;27;45426;-72
2023/12/01 06:19:26;;;;;;;1.95;1.85;;;14.10;47.30;;;;;;5110314;27;45381;-72
2023/12/01 06:21:53;;;;;;;2.42;2.00;;;14.20;47.10;;;;;;5109695;27;45145;-71
2023/12/01 06:24:23;;;;;;;2.25;2.13;;;14.30;47.50;;;;;;5109844;27;45219;-73
2023/12/01 06:26:52;;;;;;;2.35;2.17;;;14.30;46.70;;;;;;5110565;27;45405;-72
2023/12/01 06:29:19;;;;;;;2.35;2.15;;;14.50;46.60;;;;;;5110188;27;46662;-72
2023/12/01 06:31:46;;;;;;;2.17;2.03;;;14.60;46.90;;;;;;5110105;27;45460;-72
2023/12/01 06:34:13;;;;;;;2.08;1.98;;;14.70;46.00;;;;;;5110135;27;45400;-72
2023/12/01 06:36:40;;;;;;;2.38;2.17;;;14.90;45.80;;;;;;5110385;27;45368;-72
2023/12/01 06:39:10;;;;;;;1.90;1.75;;;15.00;45.60;;;;;;5109979;27;46722;-72
2023/12/01 06:41:38;;;;;;;2.17;1.92;;;15.10;45.40;;;;;;5109824;27;45382;-72
2023/12/01 06:44:05;;;;;;;2.30;2.20;;;15.20;45.10;;;;;;5110278;27;45345;-72
2023/12/01 06:46:32;;;;;;;2.50;2.30;;;15.30;45.00;;;;;;5110283;27;45200;-72
2023/12/01 06:48:59;;;;;;;2.47;2.28;;;15.40;44.70;;;;;;5109729;27;45276;-73
2023/12/01 06:51:31;;;;;;;2.30;2.10;;;15.60;44.40;;;;;;5109873;27;45329;-72
2023/12/01 06:53:59;;;;;;;2.13;1.95;;;15.70;44.10;;;;;;5110199;27;45226;-72
2023/12/01 06:56:26;;;;;;;2.10;1.90;;;15.80;43.90;;;;;;5110452;27;45291;-72
2023/12/01 06:58:57;;;;;;;2.30;2.20;;;15.90;43.70;;;;;;5109590;27;46486;-72
2023/12/01 07:01:27;;;;;;;2.00;1.83;;;16.10;43.60;;;;;;5109621;27;45346;-71
2023/12/01 07:03:54;;;;;;;2.35;2.20;;;16.20;43.30;;;;;;5109808;27;45495;-72
2023/12/01 07:06:22;;;;;;;2.05;1.95;;;16.30;43.20;;;;;;5109932;27;45392;-73
2023/12/01 07:08:49;;;;;;;2.00;1.80;;;16.30;43.00;;;;;;5109329;27;46666;-72
2023/12/01 07:11:17;;;;;;;1.77;1.67;;;16.40;42.80;;;;;;5108642;27;45398;-72
2023/12/01 07:13:44;;;;;;;1.90;1.80;;;16.50;42.60;;;;;;5109070;27;45280;-72
2023/12/01 07:16:12;;;;;;;1.80;1.70;;;16.60;42.60;;;;;;5109439;27;45593;-72
2023/12/01 07:18:40;;;;;;;2.20;2.00;;;16.70;42.40;;;;;;5109204;27;46898;-72
2023/12/01 07:21:07;;;;;;;2.20;1.88;;;16.70;42.30;;;;;;5109298;27;45370;-72
2023/12/01 07:23:36;;;;;;;1.77;1.67;;;16.80;42.20;;;;;;5109556;27;45475;-72
2023/12/01 07:26:03;;;;;;;1.77;1.67;;;16.90;42.10;;;;;;5109646;27;45541;-72
2023/12/01 07:28:30;;;;;;;1.80;1.70;;;16.90;41.90;;;;;;5109208;27;45269;-72
2023/12/01 07:30:56;;;;;;;2.33;1.75;;;17.00;41.80;;;;;;5109008;27;45378;-72
2023/12/01 07:33:24;;;;;;;2.42;1.65;;;17.00;41.60;;;;;;5109248;27;45406;-72
2023/12/01 07:35:51;;;;;;;1.92;1.77;;;17.10;41.60;;;;;;5109499;27;45326;-72
2023/12/01 07:38:20;;;;;;;1.95;1.85;;;17.10;41.50;;;;;;5109047;27;45338;-72
2023/12/01 07:40:47;;;;;;;1.70;1.60;;;17.20;41.40;;;;;;5109010;27;45340;-72
2023/12/01 07:43:14;;;;;;;1.83;1.73;;;17.20;42.00;;;;;;5109209;27;45369;-72
2023/12/01 07:45:41;;;;;;;2.20;1.80;;;17.30;41.20;;;;;;5109299;27;45353;-72
2023/12/01 07:48:09;;;;;;;3.00;1.70;;;17.30;41.20;;;;;;5106251;27;46159;-72
2023/12/01 07:50:37;;;;;;;2.35;1.67;;;17.40;41.20;;;;;;5108832;27;45411;-72
2023/12/01 07:53:04;;;;;;;1.90;1.80;;;17.40;41.10;;;;;;5109061;27;45358;-72
2023/12/01 07:55:32;;;;;;;2.30;1.80;;;17.50;41.00;;;;;;5108747;27;45304;-71
2023/12/01 07:57:59;;;;;;;1.77;1.67;;;17.50;40.90;;;;;;5107805;27;45726;-72
2023/12/01 08:00:27;;;;;;;1.77;1.67;;;17.50;40.90;;;;;;5108660;27;45330;-72
2023/12/01 08:02:54;;;;;;;2.05;1.85;;;17.60;40.80;;;;;;5108886;27;45408;-72
2023/12/01 08:05:20;;;;;;;1.95;1.75;;;17.60;40.80;;;;;;5109006;27;45374;-72
2023/12/01 08:07:51;;;;;;;1.83;1.70;;;17.60;40.70;;;;;;5108551;27;46276;-72
2023/12/01 08:10:18;;;;;;;2.13;1.90;;;17.70;40.60;;;;;;5108417;27;45371;-72
2023/12/01 08:12:46;;;;;;;1.90;1.80;;;17.70;40.60;;;;;;5108518;27;45329;-72
2023/12/01 08:15:12;;;;;;;1.80;1.70;;;17.70;40.50;;;;;;5108845;27;45477;-72
2023/12/01 08:17:39;;;;;;;1.98;1.88;;;17.80;40.50;;;;;;5108368;27;46611;-72
2023/12/01 08:20:07;;;;;;;1.80;1.70;;;17.80;40.40;;;;;;5108490;27;45359;-72
2023/12/01 08:22:35;;;;;;;1.75;1.65;;;17.80;40.40;;;;;;5108453;27;45329;-72
2023/12/01 08:25:03;;;;;;;1.88;1.77;;;17.80;40.30;;;;;;5110207;27;45252;-72
2023/12/01 08:27:31;;;;;;;1.92;1.80;;;17.90;40.30;;;;;;5108311;27;45157;-72
2023/12/01 08:29:58;;;;;;;2.15;1.83;;;17.90;40.30;;;;;;5108558;27;45377;-72
2023/12/01 08:32:25;;;;;;;1.90;1.80;;;17.90;40.30;;;;;;5109267;27;45241;-71
2023/12/01 08:34:51;;;;;;;1.80;1.70;;;17.90;40.30;;;;;;5110064;27;45470;-72
2023/12/01 08:37:18;;;;;;;2.60;2.17;;;17.90;40.20;;;;;;5110231;27;45563;-72
2023/12/01 08:39:45;;;;;;;2.08;1.90;;;17.90;40.20;;;;;;5108386;27;45192;-72
2023/12/01 08:42:13;;;;;;;2.25;2.05;;;17.90;40.20;;;;;;5109125;27;45395;-72
2023/12/01 08:44:40;;;;;;;2.05;1.90;;;17.90;40.20;;;;;;5109859;27;45356;-72
2023/12/01 08:47:08;;;;;;;2.08;1.88;;;18.00;40.20;;;;;;5109540;27;46617;-72
2023/12/01 08:49:35;;;;;;;2.08;1.95;;;18.00;40.10;;;;;;5108708;27;45366;-72
2023/12/01 08:52:02;;;;;;;2.40;2.10;;;18.00;40.10;;;;;;5108029;27;45452;-72
2023/12/01 08:54:29;;;;;;;3.10;2.30;;;18.00;40.10;;;;;;5108821;27;45464;-72
2023/12/01 08:56:58;;;;;;;3.13;2.33;;;18.00;40.10;;;;;;5107311;27;45415;-72
2023/12/01 08:59:27;;;;;;;2.47;2.10;;;18.00;40.00;;;;;;5107670;27;45200;-72
2023/12/01 09:01:54;;;;;;;2.25;2.05;;;18.10;40.10;;;;;;5108049;27;45226;-72
2023/12/01 09:04:22;;;;;;;2.83;2.58;;;18.10;40.00;;;;;;5107985;27;45492;-72
2023/12/01 09:06:48;;;;;;;2.70;2.33;;;18.10;40.10;;;;;;5107557;27;45280;-72
2023/12/01 09:09:15;;;;;;;2.45;2.25;;;18.10;40.00;;;;;;5107640;27;45212;-72
2023/12/01 09:11:42;;;;;;;2.50;2.30;;;18.10;40.10;;;;;;5111138;27;45355;-72
2023/12/01 09:14:09;;;;;;;2.85;1.88;;;18.10;40.00;;;;;;5115235;27;45304;-72
2023/12/01 09:16:37;;;;;;;4.20;2.17;;;18.10;40.00;;;;;;5108083;27;45626;-72
2023/12/01 09:19:04;;;;;;;2.22;2.05;;;18.10;40.00;;;;;;5108274;27;45307;-72
2023/12/01 09:21:31;;;;;;;3.08;2.25;;;18.10;40.00;;;;;;5110067;27;45279;-72
2023/12/01 09:23:58;;;;;;;2.47;2.28;;;18.10;40.00;;;;;;5108872;27;45493;-72
2023/12/01 09:26:25;;;;;;;2.85;2.50;;;18.10;40.00;;;;;;5107453;27;45444;-72
2023/12/01 09:28:52;;;;;;;2.47;2.08;;;18.10;40.00;;;;;;5108365;27;45299;-72
2023/12/01 09:31:19;;;;;;;3.83;2.05;;;18.10;40.00;;;;;;5107607;27;45250;-72
2023/12/01 09:33:47;;;;;;;2.95;2.30;;;18.10;40.00;;;;;;5108166;27;45176;-72
2023/12/01 09:36:17;;;;;;;3.30;2.33;;;18.10;40.00;;;;;;5108068;27;46415;-72
2023/12/01 09:38:47;;;;;;;2.50;2.28;;;18.10;40.60;;;;;;5107955;27;45206;-71
2023/12/01 09:41:15;;;;;;;2.47;2.28;;;18.10;40.00;;;;;;5107883;27;45399;-72
2023/12/01 09:43:43;;;;;;;2.63;2.42;;;18.10;40.00;;;;;;5109902;27;45330;-74
2023/12/01 09:46:10;;;;;;;2.63;2.42;;;18.10;39.90;;;;;;5109364;27;45289;-74
2023/12/01 09:48:37;;;;;;;2.70;2.42;;;18.20;40.00;;;;;;5108984;27;45247;-74
2023/12/01 09:51:07;;;;;;;2.58;2.38;;;18.10;40.00;;;;;;5109505;27;45403;-74
2023/12/01 09:53:37;;;;;;;3.75;2.63;;;18.20;40.00;;;;;;5110074;27;45188;-75
2023/12/01 09:56:05;;;;;;;2.60;2.40;;;18.20;40.00;;;;;;5109236;27;45514;-74
2023/12/01 09:58:32;;;;;;;2.72;2.53;;;18.10;40.00;;;;;;5109676;27;45248;-74
2023/12/01 10:00:59;;;;;;;3.75;2.63;;;18.10;40.00;;;;;;5109140;27;45123;-74
2023/12/01 10:03:27;;;;;;;3.03;2.63;;;18.20;40.00;;;;;;5108987;27;45416;-73
2023/12/01 10:05:55;;;;;;;2.70;2.50;;;18.20;40.00;;;;;;5108695;27;45359;-74
2023/12/01 10:08:24;;;;;;;3.30;2.97;;;18.20;39.90;;;;;;5108362;27;45421;-74
2023/12/01 10:10:51;;;;;;;3.33;2.60;;;18.20;40.00;;;;;;5107276;27;45213;-71
2023/12/01 10:13:20;;;;;;;2.67;2.40;;;18.20;40.00;;;;;;5107132;27;45465;-72
2023/12/01 10:15:48;;;;;;;4.28;2.75;;;18.20;40.00;;;;;;5106771;27;45425;-71
2023/12/01 10:18:16;;;;;;;3.38;2.67;;;18.20;39.90;;;;;;5106637;27;45133;-71
2023/12/01 10:20:57;;;;;;;3.97;2.47;;;18.20;39.90;;;;;;5106720;27;45382;-72
2023/12/01 10:23:27;;;;;;;2.78;2.55;;;18.20;39.90;;;;;;5106986;27;45635;-72
2023/12/01 10:25:54;;;;;;;5.00;2.60;;;18.20;39.90;;;;;;5106653;27;47748;-71
2023/12/01 10:28:21;;;;;;;3.97;2.78;;;18.20;40.00;;;;;;5106522;27;45433;-72
2023/12/01 10:30:53;;;;;;;2.72;2.30;;;18.20;39.90;;;;;;5106517;27;45328;-71
2023/12/01 10:33:20;;;;;;;3.33;3.00;;;18.20;39.90;;;;;;5086395;27;45309;-71
2023/12/01 10:35:59;;;;;;;3.35;2.55;;;18.20;39.80;;;;;;5086042;27;46671;-72
2023/12/01 10:38:27;;;;;;;3.20;2.90;;;18.30;39.80;;;;;;5085946;27;45204;-71
2023/12/01 10:40:54;;;;;;;3.50;2.88;;;18.30;39.80;;;;;;5086213;27;45304;-70
2023/12/01 10:43:21;;;;;;;3.15;2.90;;;18.30;39.80;;;;;;5086639;27;45312;-71
2023/12/01 10:45:49;;;;;;;3.65;2.63;;;18.30;39.70;;;;;;5086254;27;46164;-71
2023/12/01 10:48:15;;;;;;;4.00;2.80;;;18.30;39.70;;;;;;5085911;27;45311;-71
2023/12/01 10:50:43;;;;;;;3.15;2.85;;;18.30;39.70;;;;;;5085930;27;45296;-72
2023/12/01 10:53:10;;;;;;;3.28;2.60;;;18.30;39.70;;;;;;5089245;27;45446;-72
2023/12/01 10:55:38;;;;;;;3.17;2.88;;;18.30;39.70;;;;;;5089316;27;46365;-71
2023/12/01 10:58:06;;;;;;;4.82;2.78;;;18.30;40.30;;;;;;5088954;27;45172;-71
2023/12/01 11:00:33;;;;;;;3.30;3.00;;;18.30;39.70;;;;;;5089540;27;45384;-71
2023/12/01 11:03:03;;;;;;;3.05;2.60;;;18.40;39.70;;;;;;5089593;27;45517;-72
2023/12/01 11:05:31;;;;;;;4.35;2.90;;;18.40;39.70;;;;;;5089179;27;45241;-71
2023/12/01 11:08:11;;;;;;;4.70;2.63;;;18.40;39.70;;;;;;5089710;27;45250;-72
2023/12/01 11:10:43;;;;;;;3.45;2.83;;;18.30;39.70;;;;;;5109686;27;45264;-71
2023/12/01 11:13:20;;;;;;;3.85;2.92;;;18.40;39.70;;;;;;5110062;27;45331;-71
2023/12/01 11:15:47;;;;;;;3.65;2.92;;;18.40;39.70;;;;;;5109848;27;45370;-71
2023/12/01 11:18:13;;;;;;;3.35;3.05;;;18.40;39.70;;;;;;5108781;27;45205;-71
2023/12/01 11:20:42;;;;;;;4.60;2.80;;;18.40;39.70;;;;;;5109399;27;45306;-71
2023/12/01 11:23:28;;;;;;;4.85;3.00;;;18.40;39.70;;;;;;5109762;27;45354;-71
2023/12/01 11:25:57;;;;;;;3.45;2.83;;;18.40;39.70;;;;;;5109077;27;46302;-71
2023/12/01 11:28:39;;;;;;;3.75;2.92;;;18.40;39.70;;;;;;5109214;27;45326;-71
2023/12/01 11:31:08;;;;;;;4.03;3.15;;;18.40;39.70;;;;;;5109116;27;45291;-71
2023/12/01 11:33:38;;;;;;;3.22;2.72;;;18.40;39.70;;;;;;5109573;27;45257;-71
2023/12/01 11:36:21;;;;;;;4.15;2.95;;;18.40;39.70;;;;;;5109166;27;46428;-71
2023/12/01 11:39:14;;;;;;;3.53;2.95;;;18.40;39.70;;;;;;5109222;27;45386;-71
2023/12/01 11:41:44;;;;;;;3.65;2.88;;;18.40;39.70;;;;;;5108541;27;45253;-71
2023/12/01 11:44:10;;;;;;;3.85;3.17;;;18.40;39.60;;;;;;5108731;27;45338;-71
2023/12/01 11:46:38;;;;;;;3.13;2.83;;;18.40;39.70;;;;;;5108907;27;46456;-71
2023/12/01 11:49:05;;;;;;;5.63;2.90;;;18.40;39.70;;;;;;5109171;27;45272;-71
2023/12/01 11:51:33;;;;;;;4.35;2.72;;;18.40;39.70;;;;;;5108933;27;45270;-71
2023/12/01 11:54:01;;;;;;;4.07;3.08;;;18.40;39.60;;;;;;5109311;27;45320;-71
2023/12/01 11:56:28;;;;;;;4.53;3.20;;;18.40;39.60;;;;;;5108998;27;45266;-71
2023/12/01 11:58:56;;;;;;;3.30;3.00;;;18.50;39.70;;;;;;5106848;27;45492;-71
2023/12/01 12:01:24;;;;;;;3.20;2.80;;;18.40;39.60;;;;;;5120061;27;45171;-70
2023/12/01 12:03:54;;;;;;;6.57;4.13;;;18.40;39.70;;;;;;5115930;27;45380;-71
2023/12/01 12:06:21;;;;;;;4.38;3.50;;;18.40;38.90;;;;;;5124171;27;45542;-72
2023/12/01 12:08:47;;;;;;;5.32;3.33;;;18.40;39.40;;;;;;5121477;27;45418;-72
2023/12/01 12:11:14;;;;;;;3.75;3.30;;;18.40;39.50;;;;;;5108888;27;45407;-72
2023/12/01 12:13:41;;;;;;;3.90;3.50;;;18.40;39.50;;;;;;5118472;27;45654;-72
2023/12/01 12:16:11;;;;;;;4.10;3.53;;;18.40;39.60;;;;;;5104245;27;45572;-71
2023/12/01 12:18:38;;;;;;;3.92;3.05;;;18.40;39.70;;;;;;5095959;27;45180;-72
2023/12/01 12:21:05;;;;;;;3.90;3.10;;;18.50;39.70;;;;;;5094565;27;45395;-72
2023/12/01 12:23:32;;;;;;;5.78;3.75;;;18.50;39.60;;;;;;5088060;27;45494;-71
2023/12/01 12:26:13;;;;;;;5.38;3.38;;;18.60;39.70;;;;;;5107871;27;46125;-71
2023/12/01 12:28:42;;;;;;;2.90;2.60;;;18.60;39.60;;;;;;5105439;27;45375;-71
2023/12/01 12:31:10;;;;;;;3.95;3.00;;;18.60;39.50;;;;;;5108374;27;45445;-71
2023/12/01 12:33:37;;;;;;;3.50;2.83;;;18.70;39.50;;;;;;5107845;27;45474;-72
2023/12/01 12:36:05;;;;;;;3.33;2.95;;;18.80;39.50;;;;;;5107744;27;45394;-72
2023/12/01 12:38:32;;;;;;;3.88;2.97;;;18.80;39.30;;;;;;5107171;27;45477;-71
2023/12/01 12:40:59;;;;;;;4.75;3.10;;;18.80;39.30;;;;;;5108428;27;45372;-71
2023/12/01 12:43:26;;;;;;;5.22;3.53;;;18.80;39.70;;;;;;5108285;27;45415;-71
2023/12/01 12:45:53;;;;;;;5.05;3.33;;;18.90;39.60;;;;;;5106416;27;46371;-71
2023/12/01 12:48:26;;;;;;;3.63;2.97;;;18.90;39.40;;;;;;5107995;27;45432;-71
2023/12/01 12:50:53;;;;;;;8.07;3.30;;;18.90;39.50;;;;;;5098737;27;45296;-71